KFAR/FAR METAR and TAF weather

Enter ICAO airport designator
Station Type Date Time Source
KFAR METAR 2020/07/15 04:53 UTC NOAA

KFAR 150453Z AUTO 18006KT 10SM CLR 17/12 A2994 RMK AO2 SLP137 T01670117


Station Type Date Time Source
KFAR Decoded METAR 2020/07/15 04:53 UTC NOAA

HECTOR INTERNATIONAL AIRPORT , ND, United States (KFAR) 46-56N 096-49W 277M
Jul 15, 2020 - 12:53 AM EDT / 2020.07.15 0453 UTC
Wind: from the S (180 degrees) at 7 MPH (6 KT):0
Visibility: 10 mile(s):0
Sky conditions: clear
Temperature: 62.1 F (16.7 C)
Dew Point: 53.1 F (11.7 C)
Relative Humidity: 72%
Pressure (altimeter): 29.94 in. Hg (1013 hPa)
ob: KFAR 150453Z AUTO 18006KT 10SM CLR 17/12 A2994 RMK AO2 SLP137 T01670117
cycle: 5

Station Type Date Time Source
KFAR TAF 2020/07/15 06:22 UTC NOAA

TAF KFAR 150520Z 1506/1606 21005KT P6SM SKC
FM151700 22015KT P6SM FEW250
FM151900 22015G23KT P6SM SCT250

Example: see airport list